Terminal Aerodrome Forecast
Issued by NWS

Home | Current Version | Previous Version | Graphics & Text | Print | Product List | Glossary On
Versions: 1 2 3 4 5 6 7 8 9 10 11 12 13 14 15 16 17 18 19 20 21 22 23 24 25 26 27 28 29 30 31 32 33 34 35 36 37 38 39 40 41 42 43
000
FTUS43 KGRB 261100 RRA
TAFRHI
TAF
KRHI 261151Z 2612/2712 04003KT 6SM BR SCT012 OVC045
     FM261300 00000KT 5SM BR OVC012
     FM261600 04003KT 5SM BR OVC010
     FM270100 02004KT 5SM BR OVC009
     FM270800 01005KT 2SM -SN BR OVC008
      TEMPO 2710/2712 1SM -SN BR=

USA.gov is the U.S. government's official web portal to all federal, state and local government web resources and services.